Airport ICAO


14:35 UTC

14°C

Overcast


An affordable passengers' Moving Map for your aircraft. Made for the iPad and the iPhone
More information here

LFLY Bron


Lyon FRANCE   VFR


METAR LFLY 241430Z AUTO 17016KT 9999 FEW047 SCT100 OVC120 14/09 Q1016 BECMG 18015G25KT 0h05min

TAF LFLY 241100Z 2412/2512 18015G25KT CAVOK PROB40 TEMPO 2412/2418 -RA OVC060 PROB30 TEMPO 2418/2504 -RA OVC070 TEMPO 2503/2506 18020G30KT BECMG 2502/2504 6000 RA OVC025 BECMG 2506/2508 34006KT NSW 3h35min





NOTAMS

OPEN